Time;durP1;ratioP1;P1;durP2;ratioP2;P2;SDS_P1;SDS_P2;PMS_P1;PMS_P2;Temp;Humidity;BMP_temperature;BMP_pressure;BME280_temperature;BME280_humidity;BME280_pressure;Samples;Min_cycle;Max_cycle;Signal;HPM_P1;HPM_P2
2023/10/23 00:01:38;;;;;;;22.07;16.43;;;6.70;84.30;;;;;;5027811;28;20081;-63
2023/10/23 00:04:04;;;;;;;20.37;12.27;;;6.70;84.20;;;;;;5024892;28;20088;-63
2023/10/23 00:06:30;;;;;;;18.63;11.43;;;6.60;84.30;;;;;;5013821;28;20080;-62
2023/10/23 00:08:56;;;;;;;21.30;12.30;;;6.60;84.30;;;;;;5025711;28;20710;-62
2023/10/23 00:11:26;;;;;;;21.33;12.90;;;6.60;84.40;;;;;;5031168;28;20053;-63
2023/10/23 00:13:52;;;;;;;21.83;12.23;;;6.70;84.50;;;;;;5032425;28;20049;-63
2023/10/23 00:16:18;;;;;;;22.63;14.03;;;6.70;84.50;;;;;;5030313;28;20046;-63
2023/10/23 00:18:44;;;;;;;22.00;13.40;;;6.70;84.50;;;;;;5012862;28;20092;-63
2023/10/23 00:21:10;;;;;;;17.53;12.80;;;6.70;84.60;;;;;;5030105;28;20052;-62
2023/10/23 00:23:35;;;;;;;22.00;13.50;;;6.60;84.60;;;;;;5032239;28;20052;-62
2023/10/23 00:26:01;;;;;;;21.30;13.77;;;6.70;84.60;;;;;;5019969;28;20049;-62
2023/10/23 00:28:27;;;;;;;22.67;13.73;;;6.60;84.60;;;;;;5031489;28;20542;-63
2023/10/23 00:30:53;;;;;;;20.23;13.27;;;6.60;84.60;;;;;;5031345;28;20465;-63
2023/10/23 00:33:19;;;;;;;19.73;13.60;;;6.60;84.70;;;;;;5038548;28;20165;-63
2023/10/23 00:35:44;;;;;;;22.20;14.93;;;6.60;84.70;;;;;;5032128;28;20567;-63
2023/10/23 00:38:10;;;;;;;25.90;14.30;;;6.60;84.80;;;;;;5019647;28;20041;-63
2023/10/23 00:40:35;;;;;;;21.47;14.13;;;6.60;84.80;;;;;;5031692;28;20099;-63
2023/10/23 00:43:31;;;;;;;19.43;14.73;;;6.60;84.90;;;;;;5012013;28;20042;-63
2023/10/23 00:45:59;;;;;;;20.30;14.17;;;6.60;84.80;;;;;;5024293;28;20420;-62
2023/10/23 00:48:27;;;;;;;21.00;15.20;;;6.60;84.90;;;;;;5023647;28;20393;-63
2023/10/23 00:50:58;;;;;;;24.40;15.03;;;6.60;84.80;;;;;;5032079;28;20104;-62
2023/10/23 00:53:27;;;;;;;20.48;15.30;;;6.60;84.80;;;;;;5031140;28;20062;-63
2023/10/23 00:55:54;;;;;;;21.40;15.03;;;6.60;85.00;;;;;;5031362;28;20111;-63
2023/10/23 00:58:23;;;;;;;26.60;15.37;;;6.60;85.00;;;;;;5031561;28;20042;-63
2023/10/23 01:00:48;;;;;;;22.50;15.80;;;6.60;85.00;;;;;;5023328;28;20096;-63
2023/10/23 01:03:14;;;;;;;23.10;14.47;;;6.60;85.10;;;;;;5017071;28;20049;-63
2023/10/23 01:05:40;;;;;;;25.73;14.93;;;6.60;85.00;;;;;;5029986;28;20053;-63
2023/10/23 01:08:06;;;;;;;26.17;15.80;;;6.60;85.10;;;;;;5030683;28;20077;-63
2023/10/23 01:10:35;;;;;;;27.63;16.20;;;6.60;85.10;;;;;;5031074;28;20061;-63
2023/10/23 01:13:06;;;;;;;23.80;15.77;;;6.60;85.00;;;;;;5031760;28;20047;-63
2023/10/23 01:15:31;;;;;;;24.42;15.15;;;6.60;85.00;;;;;;5031188;28;20049;-63
2023/10/23 01:17:59;;;;;;;27.60;16.90;;;6.50;85.00;;;;;;5014747;28;20057;-63
2023/10/23 01:20:26;;;;;;;24.77;16.53;;;6.50;85.00;;;;;;5020746;28;20120;-63
2023/10/23 01:22:58;;;;;;;28.17;16.57;;;6.50;85.00;;;;;;5027720;28;20099;-63
2023/10/23 01:25:24;;;;;;;26.67;16.70;;;6.50;84.90;;;;;;5011144;28;20496;-62
2023/10/23 01:27:50;;;;;;;26.93;17.80;;;6.50;85.00;;;;;;5011048;28;20054;-62
2023/10/23 01:30:16;;;;;;;30.60;18.30;;;6.50;85.00;;;;;;5022436;28;20049;-62
2023/10/23 01:32:41;;;;;;;26.10;17.60;;;6.50;85.00;;;;;;5032632;28;20045;-63
2023/10/23 01:35:08;;;;;;;27.60;17.90;;;6.50;85.00;;;;;;5042310;28;20373;-63
2023/10/23 01:37:34;;;;;;;25.93;17.87;;;6.50;85.00;;;;;;5018416;28;20488;-63
2023/10/23 01:39:59;;;;;;;27.33;17.43;;;6.40;85.00;;;;;;5030615;28;20312;-63
2023/10/23 01:42:28;;;;;;;25.17;17.47;;;6.50;85.10;;;;;;5030513;28;20409;-63
2023/10/23 01:44:55;;;;;;;29.93;18.93;;;6.40;85.20;;;;;;5030793;28;20065;-63
2023/10/23 01:47:22;;;;;;;36.30;18.47;;;6.40;85.20;;;;;;5014718;28;20042;-63
2023/10/23 01:49:48;;;;;;;29.47;17.87;;;6.50;85.30;;;;;;5020292;28;20049;-63
2023/10/23 01:52:14;;;;;;;31.90;18.53;;;6.50;85.30;;;;;;5030495;28;20045;-63
2023/10/23 01:54:40;;;;;;;32.60;19.50;;;6.50;85.30;;;;;;5030186;28;20187;-63
2023/10/23 01:57:06;;;;;;;29.83;19.13;;;6.50;85.40;;;;;;5026107;28;20066;-63
2023/10/23 01:59:31;;;;;;;32.07;19.13;;;6.40;85.30;;;;;;5010695;28;20041;-63
2023/10/23 02:01:57;;;;;;;29.27;19.20;;;6.40;85.20;;;;;;5010857;28;20085;-63
2023/10/23 02:04:23;;;;;;;34.77;19.90;;;6.40;85.20;;;;;;5020459;28;20504;-63
2023/10/23 02:06:48;;;;;;;32.27;18.80;;;6.40;85.30;;;;;;5030015;28;20507;-63
2023/10/23 02:09:15;;;;;;;32.87;19.90;;;6.40;85.20;;;;;;5029656;28;20041;-63
2023/10/23 02:11:41;;;;;;;33.43;19.63;;;6.40;85.20;;;;;;5030208;28;20053;-63
2023/10/23 02:14:07;;;;;;;32.07;20.43;;;6.30;85.20;;;;;;5030190;28;20535;-63
2023/10/23 02:16:34;;;;;;;34.90;21.20;;;6.30;85.20;;;;;;5025549;28;20052;-63
2023/10/23 02:18:59;;;;;;;35.87;19.00;;;6.30;85.20;;;;;;5025290;28;20046;-63
2023/10/23 02:21:25;;;;;;;26.50;18.70;;;6.30;85.20;;;;;;5027029;28;20045;-63
2023/10/23 02:23:51;;;;;;;35.97;19.90;;;6.30;85.30;;;;;;5028453;28;20045;-63
2023/10/23 02:26:18;;;;;;;33.83;20.07;;;6.20;85.30;;;;;;5028337;28;20123;-63
2023/10/23 02:28:43;;;;;;;29.23;18.30;;;6.20;85.20;;;;;;5030125;28;20053;-63
2023/10/23 02:31:09;;;;;;;38.10;20.27;;;6.20;85.20;;;;;;5029259;28;20045;-63
2023/10/23 02:33:36;;;;;;;32.23;19.87;;;6.20;85.30;;;;;;5037451;28;20044;-63
2023/10/23 02:36:02;;;;;;;31.87;18.97;;;6.20;85.30;;;;;;5027357;28;20049;-63
2023/10/23 02:38:27;;;;;;;39.57;20.40;;;6.20;85.30;;;;;;5019985;28;20058;-63
2023/10/23 02:40:54;;;;;;;36.73;20.07;;;6.10;85.20;;;;;;5015161;28;20044;-63
2023/10/23 02:43:20;;;;;;;32.20;18.83;;;6.10;85.30;;;;;;5029615;28;20049;-63
2023/10/23 02:45:46;;;;;;;34.10;20.53;;;6.10;85.30;;;;;;5025541;28;20050;-63
2023/10/23 02:48:13;;;;;;;35.37;22.40;;;6.00;85.20;;;;;;5009237;28;20054;-63
2023/10/23 02:50:38;;;;;;;33.33;19.33;;;6.00;85.30;;;;;;5013484;28;20045;-63
2023/10/23 02:53:06;;;;;;;34.70;20.30;;;6.00;85.30;;;;;;5028501;28;20416;-63
2023/10/23 02:55:32;;;;;;;33.80;20.80;;;6.00;85.40;;;;;;5029478;28;20041;-63
2023/10/23 02:57:58;;;;;;;33.70;20.63;;;6.00;85.40;;;;;;5028913;28;20064;-63
2023/10/23 03:00:24;;;;;;;29.97;20.00;;;6.00;85.50;;;;;;5028919;28;20111;-63
2023/10/23 03:02:49;;;;;;;37.43;21.80;;;6.00;85.40;;;;;;5028656;28;20060;-63
2023/10/23 03:05:16;;;;;;;32.47;20.67;;;6.00;85.50;;;;;;5028869;28;20049;-63
2023/10/23 03:07:42;;;;;;;42.13;22.10;;;6.00;85.50;;;;;;5029316;28;20061;-63
2023/10/23 03:10:09;;;;;;;33.67;21.17;;;6.00;85.40;;;;;;5026678;28;20111;-63
2023/10/23 03:12:35;;;;;;;39.83;23.30;;;6.00;85.40;;;;;;5028744;28;20508;-63
2023/10/23 03:15:04;;;;;;;34.27;21.40;;;5.90;85.40;;;;;;5029079;28;20079;-63
2023/10/23 03:17:30;;;;;;;41.97;23.67;;;6.00;85.50;;;;;;5015636;28;20050;-63
2023/10/23 03:19:56;;;;;;;39.63;22.60;;;6.00;85.50;;;;;;5028455;28;20075;-63
2023/10/23 03:22:22;;;;;;;41.27;21.30;;;5.90;85.50;;;;;;5028153;28;20053;-63
2023/10/23 03:24:47;;;;;;;40.00;22.57;;;5.90;85.40;;;;;;5028760;28;20048;-63
2023/10/23 03:27:13;;;;;;;34.27;21.00;;;5.90;85.30;;;;;;5028427;28;20519;-63
2023/10/23 03:29:43;;;;;;;29.37;19.20;;;5.90;85.40;;;;;;5031722;28;20045;-63
2023/10/23 03:32:08;;;;;;;22.13;14.43;;;5.80;85.30;;;;;;5026851;28;20053;-63
2023/10/23 03:34:34;;;;;;;19.83;13.10;;;5.80;85.10;;;;;;5037194;28;20164;-63
2023/10/23 03:37:00;;;;;;;14.43;9.80;;;5.60;84.70;;;;;;5021320;28;20049;-63
2023/10/23 03:39:25;;;;;;;14.63;6.53;;;5.50;84.50;;;;;;5030564;28;20041;-63
2023/10/23 03:41:51;;;;;;;5.87;5.07;;;5.30;84.30;;;;;;5022310;28;20053;-63
2023/10/23 03:44:17;;;;;;;10.60;6.17;;;5.30;84.10;;;;;;5011828;28;20401;-63
2023/10/23 03:46:42;;;;;;;8.57;5.47;;;5.10;84.20;;;;;;5024625;28;20045;-62
2023/10/23 03:49:08;;;;;;;6.43;5.50;;;5.00;84.20;;;;;;5032498;28;20166;-63
2023/10/23 03:51:34;;;;;;;8.30;5.33;;;5.00;84.20;;;;;;5032414;28;20080;-63
2023/10/23 03:54:00;;;;;;;9.83;5.40;;;5.00;84.30;;;;;;5032484;28;20076;-63
2023/10/23 03:56:26;;;;;;;7.63;5.30;;;4.90;84.30;;;;;;5032162;28;20512;-63
2023/10/23 03:58:51;;;;;;;7.77;6.17;;;4.90;84.40;;;;;;5019587;28;20186;-63
2023/10/23 04:01:17;;;;;;;15.10;9.63;;;4.90;84.40;;;;;;5031466;28;20207;-63
2023/10/23 04:03:43;;;;;;;19.73;12.00;;;4.80;84.40;;;;;;5032617;28;20045;-63
2023/10/23 04:06:08;;;;;;;23.23;13.87;;;4.90;84.50;;;;;;5030655;28;20049;-63
2023/10/23 04:08:34;;;;;;;24.30;15.80;;;4.90;84.80;;;;;;5032419;28;20049;-63
2023/10/23 04:11:00;;;;;;;24.07;15.87;;;5.00;84.90;;;;;;5032767;28;20053;-63
2023/10/23 04:13:25;;;;;;;31.07;18.77;;;5.00;85.00;;;;;;5026157;28;20053;-63
2023/10/23 04:15:55;;;;;;;36.77;21.03;;;5.00;85.20;;;;;;5023802;28;20045;-63
2023/10/23 04:18:21;;;;;;;36.47;20.47;;;5.10;85.40;;;;;;5013586;28;20470;-63
2023/10/23 04:20:47;;;;;;;37.63;23.03;;;5.20;85.50;;;;;;5029880;28;20136;-63
2023/10/23 04:23:12;;;;;;;38.43;22.93;;;5.30;85.60;;;;;;5026020;28;20587;-63
2023/10/23 04:25:38;;;;;;;40.40;23.37;;;5.30;85.70;;;;;;5031269;28;20068;-63
2023/10/23 04:28:04;;;;;;;35.63;21.70;;;5.30;85.60;;;;;;5030421;28;20120;-63
2023/10/23 04:30:30;;;;;;;37.00;23.10;;;5.30;85.50;;;;;;5031203;28;20103;-63
2023/10/23 04:32:56;;;;;;;41.23;23.53;;;5.30;85.50;;;;;;5035271;28;20051;-63
2023/10/23 04:35:22;;;;;;;49.90;25.27;;;5.30;85.50;;;;;;5031641;28;20435;-63
2023/10/23 04:37:48;;;;;;;52.20;24.73;;;5.30;85.50;;;;;;5027802;28;20569;-63
2023/10/23 04:40:13;;;;;;;42.77;23.97;;;5.30;85.60;;;;;;5021872;28;20120;-63
2023/10/23 04:42:39;;;;;;;43.67;25.77;;;5.30;85.60;;;;;;5012968;28;20607;-63
2023/10/23 04:45:06;;;;;;;44.07;24.83;;;5.40;85.70;;;;;;5011522;28;20050;-63
2023/10/23 04:47:31;;;;;;;45.40;26.47;;;5.40;85.80;;;;;;5030367;28;20124;-64
2023/10/23 04:49:57;;;;;;;46.73;26.37;;;5.50;85.70;;;;;;5032023;28;20132;-63
2023/10/23 04:52:23;;;;;;;45.17;26.20;;;5.50;85.70;;;;;;5031357;28;20152;-63
2023/10/23 04:54:50;;;;;;;39.97;24.50;;;5.50;85.70;;;;;;5031812;28;20345;-63
2023/10/23 04:57:15;;;;;;;35.60;22.90;;;5.50;85.60;;;;;;5029781;28;20053;-63
2023/10/23 04:59:41;;;;;;;36.80;22.67;;;5.50;85.60;;;;;;5031504;28;20405;-64
2023/10/23 05:02:07;;;;;;;34.37;22.17;;;5.50;85.50;;;;;;5031780;28;20067;-63
2023/10/23 05:04:32;;;;;;;32.60;21.43;;;5.50;85.40;;;;;;5031207;28;20064;-63
2023/10/23 05:06:59;;;;;;;35.87;23.17;;;5.40;85.30;;;;;;5031173;28;20046;-63
2023/10/23 05:09:25;;;;;;;36.80;21.93;;;5.30;85.20;;;;;;5030855;28;20208;-64
2023/10/23 05:11:51;;;;;;;31.80;19.97;;;5.30;85.00;;;;;;5030535;28;20057;-64
2023/10/23 05:14:16;;;;;;;37.07;21.93;;;5.30;85.00;;;;;;5031437;28;20175;-63
2023/10/23 05:16:42;;;;;;;35.53;22.07;;;5.20;84.80;;;;;;5025022;28;20053;-63
2023/10/23 05:19:08;;;;;;;46.43;20.93;;;5.10;84.90;;;;;;5011409;28;20050;-64
2023/10/23 05:21:34;;;;;;;34.23;16.80;;;5.10;84.90;;;;;;5030131;28;20049;-63
2023/10/23 05:23:59;;;;;;;25.57;15.50;;;5.00;84.60;;;;;;5030062;28;20076;-63
2023/10/23 05:26:25;;;;;;;52.63;16.93;;;4.90;84.50;;;;;;5030149;28;20060;-64
2023/10/23 05:28:53;;;;;;;35.03;10.00;;;4.70;84.30;;;;;;5019432;28;20033;-63
2023/10/23 05:31:19;;;;;;;14.23;7.50;;;4.70;84.20;;;;;;5016329;28;20101;-63
2023/10/23 05:33:45;;;;;;;7.23;5.80;;;4.50;84.10;;;;;;5031224;28;20133;-64
2023/10/23 05:36:11;;;;;;;10.83;6.47;;;4.50;84.00;;;;;;5024157;28;20046;-63
2023/10/23 05:38:37;;;;;;;10.57;7.33;;;4.30;84.00;;;;;;5027887;28;20092;-63
2023/10/23 05:41:03;;;;;;;10.90;7.10;;;4.30;84.00;;;;;;5024440;28;20060;-63
2023/10/23 05:43:29;;;;;;;15.00;6.53;;;4.20;84.00;;;;;;5027636;28;20132;-63
2023/10/23 05:45:55;;;;;;;8.13;6.13;;;4.20;84.10;;;;;;5025797;28;20046;-63
2023/10/23 05:48:21;;;;;;;71.33;7.50;;;4.10;84.10;;;;;;5027483;28;20128;-63
2023/10/23 05:50:57;;;;;;;9.03;5.90;;;4.10;84.10;;;;;;5023983;28;20148;-63
2023/10/23 05:53:23;;;;;;;10.73;6.90;;;4.00;84.20;;;;;;5025725;28;20494;-63
2023/10/23 05:55:48;;;;;;;10.20;7.07;;;4.00;84.10;;;;;;5025531;28;20045;-63
2023/10/23 05:58:14;;;;;;;46.87;9.43;;;4.00;84.20;;;;;;5020374;28;20054;-63
2023/10/23 06:00:40;;;;;;;9.30;7.17;;;3.90;84.20;;;;;;5021213;28;20396;-63
2023/10/23 06:03:05;;;;;;;110.97;10.47;;;3.90;84.10;;;;;;5023136;28;20393;-63
2023/10/23 06:05:31;;;;;;;25.73;6.83;;;3.90;84.10;;;;;;5026394;28;20432;-63
2023/10/23 06:07:56;;;;;;;11.13;7.27;;;3.70;84.10;;;;;;5025836;28;20554;-63
2023/10/23 06:10:22;;;;;;;12.03;7.20;;;3.70;84.00;;;;;;5024528;28;20058;-63
2023/10/23 06:12:48;;;;;;;81.57;9.17;;;3.70;84.10;;;;;;5029140;28;20050;-63
2023/10/23 06:15:14;;;;;;;9.53;6.03;;;3.70;84.20;;;;;;5026618;28;20423;-64
2023/10/23 06:17:39;;;;;;;10.67;5.43;;;3.70;84.20;;;;;;5027055;28;20041;-64
2023/10/23 06:20:06;;;;;;;7.00;5.00;;;3.70;84.30;;;;;;5027056;28;20204;-64
2023/10/23 06:22:31;;;;;;;7.57;5.70;;;3.70;84.10;;;;;;5026938;28;20053;-64
2023/10/23 06:24:57;;;;;;;9.90;6.97;;;3.60;84.10;;;;;;5026224;28;20085;-64
2023/10/23 06:27:23;;;;;;;12.83;6.80;;;3.60;84.20;;;;;;5024005;28;20045;-64
2023/10/23 06:29:51;;;;;;;20.87;12.57;;;3.70;84.30;;;;;;5016444;28;20120;-64
2023/10/23 06:32:18;;;;;;;12.33;7.83;;;3.70;84.30;;;;;;5023335;28;20041;-64
2023/10/23 06:34:43;;;;;;;13.97;9.23;;;3.70;84.40;;;;;;5019610;28;20056;-64
2023/10/23 06:37:10;;;;;;;17.83;12.03;;;3.70;84.30;;;;;;5010809;28;20042;-64
2023/10/23 06:39:36;;;;;;;19.90;9.43;;;3.70;84.30;;;;;;5016546;28;20099;-64
2023/10/23 06:42:02;;;;;;;15.43;8.77;;;3.70;84.30;;;;;;5021874;28;20497;-64
2023/10/23 06:44:28;;;;;;;23.40;12.20;;;3.70;84.20;;;;;;5020274;28;20096;-64
2023/10/23 06:46:54;;;;;;;16.90;10.57;;;3.70;84.20;;;;;;5015655;28;20416;-63
2023/10/23 06:49:20;;;;;;;19.60;12.07;;;3.70;84.30;;;;;;5026075;28;20049;-64
2023/10/23 06:51:46;;;;;;;106.93;14.73;;;3.70;84.30;;;;;;5025596;28;20077;-64
2023/10/23 06:54:12;;;;;;;35.90;10.10;;;3.80;84.50;;;;;;5025709;28;20048;-65
2023/10/23 06:56:37;;;;;;;158.83;14.87;;;3.80;84.40;;;;;;5025797;28;20561;-64
2023/10/23 06:59:03;;;;;;;244.83;15.77;;;3.80;84.20;;;;;;5019120;28;20041;-64
2023/10/23 07:01:29;;;;;;;275.53;15.13;;;3.70;84.10;;;;;;5013573;28;20049;-64
2023/10/23 07:03:54;;;;;;;321.73;17.67;;;3.70;84.10;;;;;;5007367;28;20053;-64
2023/10/23 07:06:20;;;;;;;584.70;38.77;;;3.70;84.10;;;;;;5010927;28;20045;-64
2023/10/23 07:08:46;;;;;;;395.30;22.83;;;3.70;84.30;;;;;;5008362;28;20080;-64
2023/10/23 07:11:16;;;;;;;28.03;12.57;;;3.80;84.40;;;;;;5008568;28;20049;-64
2023/10/23 07:13:42;;;;;;;71.20;16.50;;;3.90;84.30;;;;;;5010757;28;20103;-64
2023/10/23 07:16:08;;;;;;;13.80;9.87;;;3.90;84.60;;;;;;5009775;28;20053;-64
2023/10/23 07:18:33;;;;;;;158.03;16.07;;;3.90;84.60;;;;;;5008912;28;20127;-64
2023/10/23 07:21:03;;;;;;;240.90;19.00;;;4.00;84.60;;;;;;5009796;28;20063;-64
2023/10/23 07:23:31;;;;;;;119.37;13.73;;;4.00;84.60;;;;;;5012912;28;20144;-64
2023/10/23 07:26:10;;;;;;;19.97;13.20;;;4.10;84.60;;;;;;5010041;28;20153;-64
2023/10/23 07:28:38;;;;;;;14.47;10.60;;;4.20;84.60;;;;;;5009240;28;20496;-64
2023/10/23 07:31:05;;;;;;;19.10;13.77;;;4.20;84.70;;;;;;5007292;28;20350;-64
2023/10/23 07:33:31;;;;;;;16.47;11.93;;;4.30;84.80;;;;;;5009240;28;20065;-64
2023/10/23 07:36:09;;;;;;;14.20;11.47;;;4.40;84.80;;;;;;5005545;28;20115;-63
2023/10/23 07:38:42;;;;;;;18.27;14.13;;;4.50;84.70;;;;;;5008735;28;20607;-63
2023/10/23 07:41:11;;;;;;;22.57;15.43;;;4.50;84.70;;;;;;5009350;28;20513;-63
2023/10/23 07:43:38;;;;;;;24.67;17.87;;;4.70;85.00;;;;;;5009451;28;20049;-64
2023/10/23 07:46:08;;;;;;;30.43;19.97;;;4.80;85.20;;;;;;5009363;28;20084;-64
2023/10/23 07:48:34;;;;;;;26.02;18.23;;;5.00;85.40;;;;;;5009131;28;20088;-64
2023/10/23 07:51:00;;;;;;;26.97;20.00;;;5.10;85.40;;;;;;5007953;28;20136;-64
2023/10/23 07:53:32;;;;;;;27.30;20.43;;;5.30;85.40;;;;;;5007197;28;20482;-64
2023/10/23 07:56:00;;;;;;;;;;;5.30;85.30;;;;;;5009786;28;20049;-64
2023/10/23 07:58:26;;;;;;;33.00;23.17;;;5.30;85.10;;;;;;5009486;28;19925;-64
2023/10/23 08:01:07;;;;;;;35.80;23.07;;;5.30;85.20;;;;;;5007831;28;20056;-64
2023/10/23 08:03:34;;;;;;;35.00;24.17;;;5.50;85.40;;;;;;5009803;28;20073;-64
2023/10/23 08:06:03;;;;;;;32.27;23.53;;;5.60;85.40;;;;;;5009002;28;20499;-64
2023/10/23 08:08:33;;;;;;;29.57;22.07;;;5.70;85.30;;;;;;5008269;28;20056;-64
2023/10/23 08:11:00;;;;;;;35.97;24.42;;;5.80;85.50;;;;;;5007802;28;20140;-64
2023/10/23 08:13:25;;;;;;;32.40;24.23;;;5.90;85.50;;;;;;5008598;28;20061;-64
2023/10/23 08:15:51;;;;;;;29.90;24.00;;;6.00;85.30;;;;;;5010152;28;20688;-64
2023/10/23 08:18:18;;;;;;;32.13;23.70;;;6.10;85.40;;;;;;5012098;28;20058;-64
2023/10/23 08:20:43;;;;;;;35.70;24.80;;;6.20;85.40;;;;;;5012253;28;20059;-64
2023/10/23 08:23:09;;;;;;;34.97;25.00;;;6.20;85.30;;;;;;5012582;28;20054;-64
2023/10/23 08:25:35;;;;;;;36.57;25.37;;;6.30;85.20;;;;;;5012277;28;20179;-64
2023/10/23 08:28:00;;;;;;;35.07;24.67;;;6.30;85.10;;;;;;5011360;28;20128;-65
2023/10/23 08:30:26;;;;;;;34.77;23.63;;;6.40;85.10;;;;;;5009728;28;20045;-64
2023/10/23 08:32:52;;;;;;;31.60;24.23;;;6.50;85.20;;;;;;5011981;28;20533;-64
2023/10/23 08:35:19;;;;;;;33.67;25.10;;;6.60;85.30;;;;;;5012250;28;20057;-64
2023/10/23 08:37:45;;;;;;;33.20;23.73;;;6.70;85.40;;;;;;5011654;28;20199;-65
2023/10/23 08:40:11;;;;;;;36.03;23.97;;;6.80;85.40;;;;;;5011524;28;20080;-64
2023/10/23 08:42:38;;;;;;;34.20;24.20;;;6.80;85.30;;;;;;5011904;28;20548;-64
2023/10/23 08:45:04;;;;;;;31.43;22.90;;;6.90;85.30;;;;;;5011141;28;20530;-64
2023/10/23 08:47:30;;;;;;;28.03;21.53;;;7.00;85.30;;;;;;5011665;28;20123;-64
2023/10/23 08:49:59;;;;;;;29.13;22.20;;;7.00;85.50;;;;;;5011498;28;20053;-65
2023/10/23 08:52:30;;;;;;;30.70;24.40;;;7.20;85.60;;;;;;5011847;28;20538;-64
2023/10/23 08:54:57;;;;;;;29.13;23.33;;;7.30;85.70;;;;;;5010505;28;20803;-64
2023/10/23 08:57:24;;;;;;;28.17;22.07;;;7.40;85.70;;;;;;5011470;28;20057;-64
2023/10/23 08:59:50;;;;;;;27.17;21.47;;;7.50;85.70;;;;;;5011317;28;20499;-65
2023/10/23 09:02:16;;;;;;;27.90;21.13;;;7.60;85.70;;;;;;5011826;28;20110;-64
2023/10/23 09:04:41;;;;;;;26.03;21.97;;;7.80;85.70;;;;;;5010261;28;20167;-65
2023/10/23 09:07:07;;;;;;;26.33;20.00;;;7.90;85.80;;;;;;5011295;28;20050;-64
2023/10/23 09:09:33;;;;;;;26.67;20.67;;;8.00;85.70;;;;;;5002831;28;21184;-64
2023/10/23 09:11:58;;;;;;;26.17;19.53;;;8.10;85.70;;;;;;5012466;28;20057;-64
2023/10/23 09:14:30;;;;;;;23.77;19.30;;;8.20;85.70;;;;;;5012269;28;20085;-64
2023/10/23 09:16:57;;;;;;;24.70;18.53;;;8.30;85.50;;;;;;5010602;28;20072;-64
2023/10/23 09:19:36;;;;;;;26.80;19.07;;;8.40;85.50;;;;;;5010498;28;20053;-65
2023/10/23 09:22:06;;;;;;;19.33;15.17;;;8.50;85.40;;;;;;5010454;28;20060;-64
2023/10/23 09:24:32;;;;;;;22.38;16.38;;;8.60;85.50;;;;;;5010535;28;20053;-64
2023/10/23 09:26:58;;;;;;;21.83;17.60;;;8.60;85.40;;;;;;5010631;28;20077;-65
2023/10/23 09:29:25;;;;;;;21.33;16.73;;;8.80;85.20;;;;;;4966255;28;20045;-64
2023/10/23 09:31:53;;;;;;;21.13;15.43;;;8.80;85.30;;;;;;5027454;28;20050;-64
2023/10/23 09:34:18;;;;;;;19.93;16.33;;;9.00;85.30;;;;;;5023547;28;20389;-65
2023/10/23 09:36:50;;;;;;;22.07;14.33;;;9.00;85.10;;;;;;5026690;28;20073;-64
2023/10/23 09:39:17;;;;;;;16.88;14.40;;;9.20;85.10;;;;;;5025430;28;20054;-64
2023/10/23 09:41:45;;;;;;;15.40;13.70;;;9.40;85.00;;;;;;5029630;28;20049;-64
2023/10/23 09:44:13;;;;;;;18.67;13.97;;;9.40;85.00;;;;;;5029325;28;20410;-65
2023/10/23 09:46:39;;;;;;;16.47;13.60;;;9.50;84.90;;;;;;5028897;28;20091;-64
2023/10/23 09:49:06;;;;;;;17.23;12.90;;;9.60;84.90;;;;;;5029744;28;20053;-64
2023/10/23 09:51:39;;;;;;;17.07;12.53;;;9.70;84.80;;;;;;5030135;28;20115;-65
2023/10/23 09:54:15;;;;;;;17.37;13.30;;;9.70;84.60;;;;;;5026462;28;20046;-65
2023/10/23 09:56:49;;;;;;;14.13;11.80;;;9.80;84.70;;;;;;5024127;28;20042;-65
2023/10/23 09:59:24;;;;;;;12.50;9.97;;;9.90;84.60;;;;;;5027435;28;20057;-64
2023/10/23 10:01:50;;;;;;;12.50;10.13;;;10.00;84.40;;;;;;5027581;28;20080;-65
2023/10/23 10:04:29;;;;;;;12.97;10.83;;;10.10;84.40;;;;;;5026535;28;20412;-65
2023/10/23 10:07:00;;;;;;;12.13;10.60;;;10.20;84.40;;;;;;5024136;28;20053;-64
2023/10/23 10:09:28;;;;;;;13.85;11.10;;;10.30;84.30;;;;;;5022417;28;20447;-64
2023/10/23 10:11:57;;;;;;;12.73;10.37;;;10.40;84.30;;;;;;5024540;28;20053;-65
2023/10/23 10:14:27;;;;;;;11.00;9.67;;;10.50;84.20;;;;;;5023299;28;20049;-65
2023/10/23 10:16:57;;;;;;;11.93;9.37;;;10.60;84.00;;;;;;5025981;28;20045;-65
2023/10/23 10:19:25;;;;;;;13.27;9.57;;;10.70;84.00;;;;;;5025267;28;20127;-64
2023/10/23 10:22:04;;;;;;;11.67;9.50;;;10.80;83.80;;;;;;5025606;28;20046;-65
2023/10/23 10:24:33;;;;;;;11.30;8.53;;;10.90;83.80;;;;;;5020496;28;20050;-65
2023/10/23 10:27:01;;;;;;;13.67;8.43;;;11.00;83.60;;;;;;5025632;28;20100;-65
2023/10/23 10:29:26;;;;;;;9.73;7.67;;;11.10;83.00;;;;;;5022011;28;20057;-65
2023/10/23 10:32:06;;;;;;;10.43;7.70;;;11.30;82.90;;;;;;5024936;28;20091;-65
2023/10/23 10:34:37;;;;;;;9.97;7.80;;;11.40;82.90;;;;;;5023232;28;20060;-65
2023/10/23 10:37:06;;;;;;;8.90;6.80;;;11.40;82.90;;;;;;5024202;28;20041;-65
2023/10/23 10:39:52;;;;;;;9.53;7.37;;;11.50;82.70;;;;;;5028168;28;20060;-65
2023/10/23 10:42:25;;;;;;;7.87;7.07;;;11.50;82.20;;;;;;5023595;28;20046;-65
2023/10/23 10:44:55;;;;;;;9.80;7.13;;;11.70;82.30;;;;;;5025234;28;20050;-65
2023/10/23 10:47:34;;;;;;;8.88;6.25;;;11.70;82.10;;;;;;5026276;28;20137;-65
2023/10/23 10:49:59;;;;;;;8.13;5.45;;;11.80;81.90;;;;;;5028757;28;20100;-65
2023/10/23 10:52:30;;;;;;;7.35;5.32;;;11.90;81.50;;;;;;5026304;28;20124;-65
2023/10/23 10:54:59;;;;;;;5.63;4.63;;;11.90;81.20;;;;;;5027852;28;20045;-65
2023/10/23 10:57:26;;;;;;;6.85;5.05;;;12.00;80.90;;;;;;5027473;28;20053;-65
2023/10/23 10:59:55;;;;;;;5.97;4.88;;;12.00;80.60;;;;;;5026092;28;20143;-65
2023/10/23 11:02:22;;;;;;;8.30;3.65;;;12.10;80.50;;;;;;5026675;28;20080;-65
2023/10/23 11:04:48;;;;;;;4.85;3.95;;;12.20;80.10;;;;;;5024483;28;20041;-65
2023/10/23 11:07:13;;;;;;;5.97;3.92;;;12.20;80.30;;;;;;5021858;28;20053;-65
2023/10/23 11:09:41;;;;;;;4.50;3.30;;;12.30;80.20;;;;;;5023744;28;20115;-65
2023/10/23 11:12:07;;;;;;;7.35;3.65;;;12.30;80.30;;;;;;5022657;28;20057;-65
2023/10/23 11:14:33;;;;;;;4.88;3.53;;;12.30;80.10;;;;;;5023812;28;20049;-65
2023/10/23 11:16:59;;;;;;;5.97;2.80;;;12.40;80.00;;;;;;5021553;28;20045;-65
2023/10/23 11:19:24;;;;;;;6.00;3.20;;;12.40;79.40;;;;;;5022870;28;20087;-65
2023/10/23 11:22:08;;;;;;;6.53;3.47;;;12.50;79.10;;;;;;5023677;28;20049;-65
2023/10/23 11:24:34;;;;;;;6.40;3.42;;;12.50;79.30;;;;;;5022913;28;20492;-65
2023/10/23 11:27:00;;;;;;;6.55;3.70;;;12.50;79.40;;;;;;5025384;28;20057;-65
2023/10/23 11:29:26;;;;;;;5.40;4.07;;;12.60;79.30;;;;;;5022953;28;20128;-62
2023/10/23 11:31:52;;;;;;;4.00;3.53;;;12.70;79.20;;;;;;5022801;28;20049;-62
2023/10/23 11:34:18;;;;;;;6.15;3.25;;;12.70;78.90;;;;;;5023843;28;20052;-63
2023/10/23 11:36:46;;;;;;;5.90;3.53;;;12.80;78.90;;;;;;5024145;28;20561;-63
2023/10/23 11:39:13;;;;;;;3.97;3.30;;;12.80;78.70;;;;;;5022250;28;20048;-62
2023/10/23 11:41:39;;;;;;;5.35;2.70;;;12.80;78.40;;;;;;5024377;28;20045;-62
2023/10/23 11:44:05;;;;;;;3.70;2.75;;;12.80;77.80;;;;;;5024918;28;20131;-62
2023/10/23 11:46:33;;;;;;;6.65;2.97;;;12.90;77.80;;;;;;5025532;28;20077;-63
2023/10/23 11:49:00;;;;;;;4.05;2.90;;;12.90;77.40;;;;;;5024679;28;20099;-62
2023/10/23 11:51:27;;;;;;;3.63;2.40;;;12.90;77.40;;;;;;5030049;28;20131;-63
2023/10/23 11:53:54;;;;;;;2.35;1.80;;;12.90;76.90;;;;;;5027186;28;20053;-65
2023/10/23 11:56:20;;;;;;;4.80;2.65;;;12.90;76.70;;;;;;5027997;28;20424;-65
2023/10/23 11:58:46;;;;;;;2.95;1.95;;;12.90;76.20;;;;;;5027420;28;20050;-65
2023/10/23 12:01:11;;;;;;;3.70;2.30;;;12.90;76.60;;;;;;5029991;28;20464;-65
2023/10/23 12:03:37;;;;;;;2.47;2.13;;;13.00;76.20;;;;;;5028027;28;20103;-65
2023/10/23 12:06:05;;;;;;;2.67;2.47;;;13.00;76.10;;;;;;5030590;28;20081;-64
2023/10/23 12:08:31;;;;;;;3.58;2.38;;;13.10;75.60;;;;;;5029368;28;20056;-65
2023/10/23 12:10:56;;;;;;;3.25;2.38;;;13.10;75.30;;;;;;5029548;28;20061;-65
2023/10/23 12:13:22;;;;;;;5.65;1.92;;;13.30;75.60;;;;;;5028745;28;20063;-65
2023/10/23 12:15:48;;;;;;;3.65;2.42;;;13.30;75.30;;;;;;5029663;28;20515;-65
2023/10/23 12:18:13;;;;;;;5.40;2.38;;;13.40;74.30;;;;;;5028514;28;20045;-65
2023/10/23 12:20:39;;;;;;;4.97;2.60;;;13.40;74.30;;;;;;5030439;28;20161;-65
2023/10/23 12:23:05;;;;;;;2.70;2.50;;;13.30;74.00;;;;;;5029446;28;20050;-62
2023/10/23 12:25:31;;;;;;;4.07;2.58;;;13.30;74.10;;;;;;5029916;28;20050;-62
2023/10/23 12:27:57;;;;;;;5.72;3.70;;;13.30;74.40;;;;;;5029157;28;20112;-62
2023/10/23 12:30:23;;;;;;;3.45;2.42;;;13.30;74.00;;;;;;5029745;28;20056;-63
2023/10/23 12:32:48;;;;;;;5.93;2.42;;;13.30;74.50;;;;;;5028365;28;20053;-63
2023/10/23 12:35:14;;;;;;;4.88;2.45;;;13.20;74.90;;;;;;5030561;28;20060;-63
2023/10/23 12:37:40;;;;;;;5.18;2.80;;;13.20;75.20;;;;;;5029897;28;20447;-63
2023/10/23 12:40:10;;;;;;;5.13;1.95;;;13.20;75.20;;;;;;5030409;28;20156;-63